createdAt,value
2019-02-08T00:00:08.613Z,2.20
2019-02-08T00:01:21.993Z,2.10
2019-02-08T00:02:27.247Z,2.50
2019-02-08T00:03:32.747Z,2.00
2019-02-08T00:04:38.109Z,2.33
2019-02-08T00:05:43.255Z,3.33
2019-02-08T00:06:48.371Z,2.22
2019-02-08T00:07:53.806Z,2.30
2019-02-08T00:08:58.844Z,2.08
2019-02-08T00:10:06.152Z,3.33
2019-02-08T00:11:11.181Z,2.10
2019-02-08T00:12:16.176Z,2.22
2019-02-08T00:13:21.259Z,5.40
2019-02-08T00:14:26.315Z,2.10
2019-02-08T00:15:32.039Z,2.30
2019-02-08T00:16:37.051Z,2.75
2019-02-08T00:17:42.393Z,2.10
2019-02-08T00:18:47.806Z,2.85
2019-02-08T00:19:52.925Z,2.50
2019-02-08T00:20:57.925Z,2.22
2019-02-08T00:22:02.979Z,3.15
2019-02-08T00:23:08.367Z,2.55
2019-02-08T00:24:14.837Z,2.30
2019-02-08T00:25:20.311Z,2.10
2019-02-08T00:26:25.803Z,2.67
2019-02-08T00:27:30.874Z,1.65
2019-02-08T00:28:35.936Z,2.05
2019-02-08T00:29:41.304Z,2.55
2019-02-08T00:30:46.316Z,2.20
2019-02-08T00:31:51.393Z,2.60
2019-02-08T00:32:56.566Z,2.92
2019-02-08T00:34:01.952Z,2.05
2019-02-08T00:35:07.413Z,2.40
2019-02-08T00:36:12.544Z,2.33
2019-02-08T00:37:17.560Z,2.58
2019-02-08T00:38:23.528Z,2.42
2019-02-08T00:39:28.564Z,2.30
2019-02-08T00:40:33.567Z,2.45
2019-02-08T00:41:38.973Z,2.80
2019-02-08T00:42:44.970Z,1.85
2019-02-08T00:43:50.252Z,1.82
2019-02-08T00:44:55.208Z,2.00
2019-02-08T00:46:00.571Z,2.40
2019-02-08T00:47:05.797Z,3.02
2019-02-08T00:48:11.120Z,2.00
2019-02-08T00:49:16.138Z,1.90
2019-02-08T00:50:22.208Z,2.12
2019-02-08T00:51:27.250Z,2.87
2019-02-08T00:52:32.683Z,1.92
2019-02-08T00:53:37.810Z,2.65
2019-02-08T00:54:43.061Z,1.70
2019-02-08T00:55:48.091Z,2.00
2019-02-08T00:56:53.040Z,3.10
2019-02-08T00:57:58.105Z,2.30
2019-02-08T00:59:03.103Z,2.15
2019-02-08T01:00:11.405Z,1.90
2019-02-08T01:01:16.497Z,2.30
2019-02-08T01:02:21.950Z,2.90
2019-02-08T01:03:27.391Z,3.15
2019-02-08T01:04:32.351Z,1.65
2019-02-08T01:05:37.893Z,1.85
2019-02-08T01:06:42.910Z,1.98
2019-02-08T01:07:48.359Z,2.62
2019-02-08T01:08:53.388Z,2.02
2019-02-08T01:09:58.525Z,2.10
2019-02-08T01:11:06.350Z,1.98
2019-02-08T01:12:11.496Z,2.30
2019-02-08T01:13:16.595Z,1.98
2019-02-08T01:14:21.625Z,1.80
2019-02-08T01:15:27.734Z,2.22
2019-02-08T01:16:32.802Z,1.95
2019-02-08T01:17:38.051Z,2.30
2019-02-08T01:18:43.159Z,2.15
2019-02-08T01:19:48.275Z,2.00
2019-02-08T01:20:53.597Z,1.85
2019-02-08T01:21:58.865Z,2.83
2019-02-08T01:23:04.114Z,2.02
2019-02-08T01:24:09.199Z,1.92
2019-02-08T01:25:17.224Z,2.02
2019-02-08T01:26:22.247Z,2.00
2019-02-08T01:27:27.390Z,2.52
2019-02-08T01:28:32.769Z,2.27
2019-02-08T01:29:38.237Z,1.98
2019-02-08T01:30:43.363Z,1.37
2019-02-08T01:31:48.329Z,1.85
2019-02-08T01:32:53.519Z,2.37
2019-02-08T01:33:58.600Z,1.95
2019-02-08T01:35:03.787Z,2.00
2019-02-08T01:36:08.838Z,2.00
2019-02-08T01:37:13.876Z,2.55
2019-02-08T01:38:18.893Z,2.00
2019-02-08T01:39:23.823Z,1.92
2019-02-08T01:40:35.261Z,1.70
2019-02-08T01:41:40.610Z,2.00
2019-02-08T01:42:45.637Z,1.85
2019-02-08T01:43:50.740Z,2.00
2019-02-08T01:44:55.909Z,2.05
2019-02-08T01:46:01.256Z,2.00
2019-02-08T01:47:06.362Z,1.75
2019-02-08T01:48:11.827Z,2.20
2019-02-08T01:49:16.971Z,2.20
2019-02-08T01:50:23.949Z,2.40
2019-02-08T01:51:29.270Z,1.80
2019-02-08T01:52:34.458Z,1.65
2019-02-08T01:53:39.927Z,1.77
2019-02-08T01:54:45.433Z,2.00
2019-02-08T01:55:50.468Z,3.15
2019-02-08T01:56:55.479Z,1.90
2019-02-08T01:58:00.707Z,2.60
2019-02-08T01:59:05.936Z,2.08
2019-02-08T02:00:15.954Z,2.30
2019-02-08T02:01:21.041Z,1.90
2019-02-08T02:02:25.990Z,1.87
2019-02-08T02:03:31.055Z,2.12
2019-02-08T02:04:36.126Z,2.10
2019-02-08T02:05:41.211Z,3.15
2019-02-08T02:06:46.198Z,2.27
2019-02-08T02:07:51.483Z,2.12
2019-02-08T02:08:56.531Z,2.10
2019-02-08T02:10:01.607Z,2.15
2019-02-08T02:11:06.739Z,2.35
2019-02-08T02:12:11.855Z,1.80
2019-02-08T02:13:18.140Z,2.65
2019-02-08T02:14:23.222Z,2.02
2019-02-08T02:15:28.980Z,2.33
2019-02-08T02:16:34.155Z,1.90
2019-02-08T02:17:39.558Z,1.60
2019-02-08T02:18:45.273Z,2.00
2019-02-08T02:19:50.380Z,2.20
2019-02-08T02:20:55.608Z,2.00
2019-02-08T02:22:00.949Z,1.67
2019-02-08T02:23:07.203Z,2.00
2019-02-08T02:24:12.186Z,2.00
2019-02-08T02:25:17.728Z,1.65
2019-02-08T02:26:23.007Z,1.55
2019-02-08T02:27:28.299Z,1.60
2019-02-08T02:28:33.568Z,2.15
2019-02-08T02:29:38.671Z,2.00
2019-02-08T02:30:44.208Z,1.92
2019-02-08T02:31:49.148Z,2.10
2019-02-08T02:32:54.646Z,1.80
2019-02-08T02:33:59.664Z,1.70
2019-02-08T02:35:06.066Z,2.00
2019-02-08T02:36:11.163Z,1.92
2019-02-08T02:37:16.152Z,2.33
2019-02-08T02:38:21.467Z,2.72
2019-02-08T02:39:26.462Z,1.77
2019-02-08T02:40:31.781Z,2.02
2019-02-08T02:41:37.199Z,1.82
2019-02-08T02:42:43.541Z,1.70
2019-02-08T02:43:48.477Z,1.75
2019-02-08T02:44:53.722Z,1.87
2019-02-08T02:45:58.647Z,2.08
2019-02-08T02:47:03.709Z,1.75
2019-02-08T02:48:11.325Z,1.57
2019-02-08T02:49:16.717Z,2.12
2019-02-08T02:50:22.341Z,1.75
2019-02-08T02:51:27.678Z,2.37
2019-02-08T02:52:33.103Z,2.20
2019-02-08T02:53:38.154Z,2.80
2019-02-08T02:54:43.239Z,1.45
2019-02-08T02:55:48.287Z,2.47
2019-02-08T02:56:53.349Z,2.08
2019-02-08T02:57:58.832Z,1.75
2019-02-08T02:59:06.640Z,1.95
2019-02-08T03:00:18.222Z,2.02
2019-02-08T03:01:23.238Z,1.95
2019-02-08T03:02:28.300Z,2.22
2019-02-08T03:03:33.388Z,2.12
2019-02-08T03:04:38.348Z,2.25
2019-02-08T03:05:43.656Z,2.00
2019-02-08T03:06:48.629Z,2.10
2019-02-08T03:07:53.922Z,2.40
2019-02-08T03:08:58.958Z,1.70
2019-02-08T03:10:06.423Z,1.87
2019-02-08T03:11:12.381Z,2.15
2019-02-08T03:12:17.855Z,1.82
2019-02-08T03:13:22.828Z,1.95
2019-02-08T03:14:27.800Z,2.40
2019-02-08T03:15:33.170Z,2.50
2019-02-08T03:16:38.183Z,2.20
2019-02-08T03:17:43.393Z,2.12
2019-02-08T03:18:48.369Z,2.10
2019-02-08T03:19:53.332Z,2.50
2019-02-08T03:20:58.688Z,2.75
2019-02-08T03:22:03.756Z,1.80
2019-02-08T03:23:08.896Z,1.80
2019-02-08T03:24:13.938Z,2.05
2019-02-08T03:25:21.283Z,1.90
2019-02-08T03:26:26.381Z,2.30
2019-02-08T03:27:31.745Z,2.65
2019-02-08T03:28:36.766Z,2.55
2019-02-08T03:29:41.752Z,2.10
2019-02-08T03:30:52.066Z,2.15
2019-02-08T03:31:57.161Z,2.20
2019-02-08T03:33:02.253Z,2.50
2019-02-08T03:34:07.312Z,2.50
2019-02-08T03:35:15.732Z,2.90
2019-02-08T03:36:21.125Z,3.87
2019-02-08T03:37:26.511Z,2.60
2019-02-08T03:38:31.923Z,2.20
2019-02-08T03:39:37.202Z,2.80
2019-02-08T03:40:42.232Z,2.15
2019-02-08T03:41:47.772Z,2.50
2019-02-08T03:42:52.906Z,2.70
2019-02-08T03:43:57.905Z,2.80
2019-02-08T03:45:04.685Z,2.72
2019-02-08T03:46:09.743Z,3.05
2019-02-08T03:47:14.704Z,3.20
2019-02-08T03:48:19.761Z,2.42
2019-02-08T03:49:25.205Z,2.50
2019-02-08T03:50:30.322Z,2.58
2019-02-08T03:51:35.688Z,2.50
2019-02-08T03:52:41.206Z,2.20
2019-02-08T03:53:46.288Z,2.35
2019-02-08T03:54:51.368Z,2.45
2019-02-08T03:55:58.376Z,2.55
2019-02-08T03:57:03.659Z,2.42
2019-02-08T03:58:10.081Z,2.70
2019-02-08T03:59:15.370Z,2.80
2019-02-08T04:00:27.269Z,2.87
2019-02-08T04:01:32.392Z,2.75
2019-02-08T04:02:37.707Z,3.27
2019-02-08T04:03:43.277Z,2.70
2019-02-08T04:04:48.511Z,3.05
2019-02-08T04:05:53.668Z,2.77
2019-02-08T04:06:58.672Z,2.62
2019-02-08T04:08:04.098Z,3.15
2019-02-08T04:09:09.772Z,3.12
2019-02-08T04:10:16.276Z,3.35
2019-02-08T04:11:21.315Z,2.47
2019-02-08T04:12:26.713Z,3.20
2019-02-08T04:13:31.810Z,3.85
2019-02-08T04:14:37.330Z,3.10
2019-02-08T04:15:42.545Z,3.50
2019-02-08T04:16:47.872Z,4.00
2019-02-08T04:17:53.906Z,2.85
2019-02-08T04:18:58.828Z,3.85
2019-02-08T04:20:05.039Z,2.60
2019-02-08T04:21:10.125Z,4.10
2019-02-08T04:22:15.630Z,2.35
2019-02-08T04:23:20.716Z,3.35
2019-02-08T04:24:29.870Z,2.50
2019-02-08T04:25:32.874Z,2.02
2019-02-08T04:26:37.915Z,2.98
2019-02-08T04:27:43.224Z,2.25
2019-02-08T04:28:48.197Z,3.40
2019-02-08T04:29:53.290Z,2.33
2019-02-08T04:30:58.578Z,2.62
2019-02-08T04:32:03.656Z,2.27
2019-02-08T04:33:09.527Z,2.55
2019-02-08T04:34:14.718Z,2.80
2019-02-08T04:35:20.086Z,2.98
2019-02-08T04:36:25.496Z,3.90
2019-02-08T04:37:30.774Z,2.60
2019-02-08T04:38:35.729Z,2.08
2019-02-08T04:39:41.041Z,2.67
2019-02-08T04:40:46.088Z,2.33
2019-02-08T04:41:51.193Z,2.30
2019-02-08T04:42:56.721Z,2.22
2019-02-08T04:44:01.637Z,2.42
2019-02-08T04:45:07.464Z,3.20
2019-02-08T04:46:12.604Z,2.08
2019-02-08T04:47:18.658Z,2.50
2019-02-08T04:48:23.756Z,2.20
2019-02-08T04:49:28.982Z,2.40
2019-02-08T04:50:34.488Z,2.40
2019-02-08T04:51:40.150Z,2.60
2019-02-08T04:52:45.509Z,2.30
2019-02-08T04:53:50.647Z,2.45
2019-02-08T04:54:55.657Z,3.02
2019-02-08T04:56:00.785Z,2.87
2019-02-08T04:57:05.929Z,2.65
2019-02-08T04:58:10.955Z,2.58
2019-02-08T04:59:16.056Z,2.62
2019-02-08T05:00:29.774Z,2.55
2019-02-08T05:01:34.769Z,2.80
2019-02-08T05:02:39.825Z,2.60
2019-02-08T05:03:44.864Z,2.67
2019-02-08T05:04:49.915Z,3.22
2019-02-08T05:05:54.919Z,2.62
2019-02-08T05:07:00.002Z,3.02
2019-02-08T05:08:05.560Z,3.90
2019-02-08T05:09:10.694Z,3.47
2019-02-08T05:10:17.668Z,4.10
2019-02-08T05:11:22.755Z,4.00
2019-02-08T05:12:27.921Z,4.40
2019-02-08T05:13:33.258Z,4.97
2019-02-08T05:14:38.322Z,5.65
2019-02-08T05:15:43.708Z,6.22
2019-02-08T05:16:48.770Z,6.30
2019-02-08T05:17:54.264Z,6.70
2019-02-08T05:18:59.298Z,6.75
2019-02-08T05:20:05.629Z,6.60
2019-02-08T05:21:10.698Z,6.60
2019-02-08T05:22:15.839Z,5.78
2019-02-08T05:23:20.863Z,5.75
2019-02-08T05:24:25.963Z,5.72
2019-02-08T05:25:31.100Z,5.75
2019-02-08T05:26:36.127Z,5.37
2019-02-08T05:27:41.225Z,5.10
2019-02-08T05:28:46.564Z,4.78
2019-02-08T05:29:51.590Z,4.45
2019-02-08T05:30:57.082Z,3.58
2019-02-08T05:32:02.172Z,3.08
2019-02-08T05:33:07.397Z,3.40
2019-02-08T05:34:12.699Z,3.95
2019-02-08T05:35:17.848Z,3.70
2019-02-08T05:36:22.958Z,3.25
2019-02-08T05:37:28.079Z,3.00
2019-02-08T05:38:33.101Z,3.95
2019-02-08T05:39:38.525Z,3.85
2019-02-08T05:40:43.656Z,3.17
2019-02-08T05:41:48.943Z,3.27
2019-02-08T05:42:53.993Z,5.85
2019-02-08T05:43:58.989Z,3.50
2019-02-08T05:45:05.819Z,3.92
2019-02-08T05:46:11.335Z,4.60
2019-02-08T05:47:16.690Z,3.90
2019-02-08T05:48:21.822Z,4.17
2019-02-08T05:49:27.780Z,4.50
2019-02-08T05:50:32.898Z,4.42
2019-02-08T05:51:38.002Z,3.87
2019-02-08T05:52:43.049Z,4.00
2019-02-08T05:53:48.341Z,3.55
2019-02-08T05:54:54.579Z,3.47
2019-02-08T05:55:59.686Z,3.00
2019-02-08T05:57:04.784Z,3.30
2019-02-08T05:58:09.898Z,3.52
2019-02-08T05:59:14.931Z,3.65
2019-02-08T06:00:25.202Z,4.22
2019-02-08T06:01:30.276Z,4.12
2019-02-08T06:02:35.394Z,3.30
2019-02-08T06:03:40.537Z,3.40
2019-02-08T06:04:45.810Z,4.08
2019-02-08T06:05:51.208Z,4.45
2019-02-08T06:06:56.233Z,3.85
2019-02-08T06:08:01.342Z,4.33
2019-02-08T06:09:09.287Z,3.60
2019-02-08T06:10:14.690Z,4.05
2019-02-08T06:11:19.637Z,3.70
2019-02-08T06:12:24.798Z,3.70
2019-02-08T06:13:30.013Z,3.65
2019-02-08T06:14:35.351Z,5.00
2019-02-08T06:15:41.495Z,4.40
2019-02-08T06:16:47.067Z,3.65
2019-02-08T06:17:52.154Z,3.55
2019-02-08T06:18:57.288Z,3.58
2019-02-08T06:20:02.492Z,4.08
2019-02-08T06:21:07.641Z,3.45
2019-02-08T06:22:12.717Z,4.05
2019-02-08T06:23:17.714Z,5.22
2019-02-08T06:24:23.260Z,3.70
2019-02-08T06:25:28.437Z,3.70
2019-02-08T06:26:33.538Z,5.37
2019-02-08T06:27:39.016Z,4.10
2019-02-08T06:28:44.432Z,3.87
2019-02-08T06:29:49.818Z,3.70
2019-02-08T06:30:54.951Z,5.70
2019-02-08T06:32:00.138Z,3.80
2019-02-08T06:33:06.864Z,3.98
2019-02-08T06:34:12.055Z,3.77
2019-02-08T06:35:19.333Z,3.72
2019-02-08T06:36:24.429Z,3.55
2019-02-08T06:37:29.509Z,3.90
2019-02-08T06:38:34.533Z,3.37
2019-02-08T06:39:40.190Z,3.22
2019-02-08T06:40:46.514Z,3.85
2019-02-08T06:41:51.655Z,3.90
2019-02-08T06:42:56.965Z,3.98
2019-02-08T06:44:02.035Z,3.95
2019-02-08T06:45:08.403Z,3.12
2019-02-08T06:46:13.442Z,3.80
2019-02-08T06:47:18.407Z,4.08
2019-02-08T06:48:23.809Z,3.30
2019-02-08T06:49:28.978Z,3.62
2019-02-08T06:50:33.996Z,3.85
2019-02-08T06:51:39.928Z,3.55
2019-02-08T06:52:45.558Z,4.22
2019-02-08T06:53:50.682Z,4.28
2019-02-08T06:54:55.749Z,4.17
2019-02-08T06:56:00.828Z,3.08
2019-02-08T06:57:20.260Z,3.67
2019-02-08T06:58:38.502Z,5.00
2019-02-08T07:00:05.647Z,3.77
2019-02-08T07:01:24.109Z,3.40
2019-02-08T07:02:38.986Z,3.80
2019-02-08T07:03:56.969Z,3.20
2019-02-08T07:05:10.101Z,3.12
2019-02-08T07:06:33.326Z,2.75
2019-02-08T07:08:05.444Z,3.80
2019-02-08T07:09:21.564Z,3.50
2019-02-08T07:10:46.110Z,3.60
2019-02-08T07:12:03.447Z,3.45
2019-02-08T07:13:40.104Z,3.10
2019-02-08T07:14:56.747Z,3.27
2019-02-08T07:16:39.371Z,3.30
2019-02-08T07:18:03.450Z,3.30
2019-02-08T07:19:28.743Z,3.50
2019-02-08T07:20:40.345Z,3.75
2019-02-08T07:22:01.549Z,3.40
2019-02-08T07:23:40.613Z,3.30
2019-02-08T07:24:54.968Z,3.20
2019-02-08T07:26:16.337Z,4.08
2019-02-08T07:27:26.793Z,3.08
2019-02-08T07:28:48.057Z,14.75
2019-02-08T07:30:03.471Z,3.27
2019-02-08T07:31:26.563Z,3.85
2019-02-08T07:32:49.220Z,4.05
2019-02-08T07:34:04.888Z,3.65
2019-02-08T07:35:18.806Z,3.15
2019-02-08T07:36:32.389Z,4.90
2019-02-08T07:38:01.812Z,5.00
2019-02-08T07:39:29.476Z,3.35
2019-02-08T07:40:45.825Z,3.58
2019-02-08T07:42:06.021Z,3.70
2019-02-08T07:43:39.837Z,3.72
2019-02-08T07:45:05.377Z,4.03
2019-02-08T07:46:30.105Z,3.72
2019-02-08T07:47:50.018Z,3.70
2019-02-08T07:49:15.270Z,3.15
2019-02-08T07:50:29.062Z,3.85
2019-02-08T07:51:53.366Z,2.90
2019-02-08T07:53:17.831Z,3.15
2019-02-08T07:54:43.692Z,3.55
2019-02-08T07:55:57.972Z,3.77
2019-02-08T07:57:22.301Z,3.80
2019-02-08T07:58:47.803Z,4.40
2019-02-08T08:00:11.947Z,4.12
2019-02-08T08:01:37.168Z,3.10
2019-02-08T08:03:04.729Z,3.27
2019-02-08T08:04:31.923Z,2.90
2019-02-08T08:06:09.398Z,3.50
2019-02-08T08:07:42.660Z,3.50
2019-02-08T08:09:09.496Z,4.55
2019-02-08T08:10:43.111Z,3.05
2019-02-08T08:12:10.595Z,3.35
2019-02-08T08:13:27.118Z,3.10
2019-02-08T08:14:44.058Z,3.00
2019-02-08T08:16:07.194Z,3.55
2019-02-08T08:17:24.909Z,2.70
2019-02-08T08:18:51.990Z,2.47
2019-02-08T08:20:07.212Z,3.37
2019-02-08T08:21:34.815Z,3.15
2019-02-08T08:23:05.738Z,2.70
2019-02-08T08:24:23.451Z,2.37
2019-02-08T08:25:51.079Z,3.12
2019-02-08T08:27:17.632Z,2.80
2019-02-08T08:28:47.779Z,2.95
2019-02-08T08:30:22.874Z,2.90
2019-02-08T08:31:49.591Z,2.52
2019-02-08T08:33:09.809Z,3.08
2019-02-08T08:34:28.061Z,2.60
2019-02-08T08:35:59.114Z,2.62
2019-02-08T08:37:48.151Z,2.40
2019-02-08T08:39:12.629Z,2.30
2019-02-08T08:40:59.322Z,2.60
2019-02-08T08:42:48.346Z,2.65
2019-02-08T08:44:33.363Z,3.25
2019-02-08T08:46:18.699Z,2.90
2019-02-08T08:48:05.143Z,2.35
2019-02-08T08:49:45.664Z,2.70
2019-02-08T08:51:35.529Z,2.55
2019-02-08T08:52:59.994Z,2.20
2019-02-08T08:54:28.869Z,2.60
2019-02-08T08:56:31.007Z,2.15
2019-02-08T08:57:59.362Z,2.17
2019-02-08T08:59:30.632Z,2.47
2019-02-08T09:01:05.460Z,2.20
2019-02-08T09:02:58.353Z,1.92
2019-02-08T09:04:54.392Z,2.05
2019-02-08T09:06:36.425Z,1.90
2019-02-08T09:08:26.613Z,2.40
2019-02-08T09:10:27.312Z,2.40
2019-02-08T09:12:25.798Z,2.30
2019-02-08T09:13:53.357Z,2.10
2019-02-08T09:15:11.775Z,2.22
2019-02-08T09:16:52.589Z,2.08
2019-02-08T09:18:23.569Z,1.80
2019-02-08T09:20:21.792Z,2.50
2019-02-08T09:22:08.873Z,2.12
2019-02-08T09:24:01.208Z,2.45
2019-02-08T09:25:15.766Z,2.08
2019-02-08T09:27:01.645Z,1.85
2019-02-08T09:28:23.077Z,2.02
2019-02-08T09:29:53.852Z,1.75
2019-02-08T09:31:45.055Z,2.75
2019-02-08T09:33:24.557Z,2.40
2019-02-08T09:35:09.722Z,2.35
2019-02-08T09:36:52.046Z,2.50
2019-02-08T09:38:41.277Z,1.65
2019-02-08T09:40:28.554Z,1.30
2019-02-08T09:42:45.501Z,2.15
2019-02-08T09:44:37.190Z,1.40
2019-02-08T09:46:29.035Z,2.42
2019-02-08T09:48:13.231Z,2.10
2019-02-08T09:49:49.961Z,2.17
2019-02-08T09:51:28.721Z,1.77
2019-02-08T09:53:11.997Z,1.80
2019-02-08T09:54:48.808Z,1.85
2019-02-08T09:56:40.651Z,1.62
2019-02-08T09:58:42.296Z,1.75
2019-02-08T10:00:24.251Z,2.08
2019-02-08T10:02:09.830Z,2.55
2019-02-08T10:03:55.424Z,1.75
2019-02-08T10:05:40.394Z,2.60
2019-02-08T10:07:18.861Z,1.80
2019-02-08T10:09:08.395Z,1.95
2019-02-08T10:10:53.636Z,1.80
2019-02-08T10:12:39.104Z,2.10
2019-02-08T10:14:18.632Z,1.80
2019-02-08T10:16:09.814Z,1.82
2019-02-08T10:17:54.679Z,1.70
2019-02-08T10:19:46.254Z,2.50
2019-02-08T10:21:37.257Z,1.42
2019-02-08T10:23:18.499Z,1.95
2019-02-08T10:25:07.548Z,2.02
2019-02-08T10:26:34.857Z,1.70
2019-02-08T10:28:06.363Z,2.10
2019-02-08T10:29:42.831Z,1.82
2019-02-08T10:31:24.226Z,1.90
2019-02-08T10:33:25.109Z,2.05
2019-02-08T10:35:07.443Z,1.75
2019-02-08T10:36:53.568Z,3.85
2019-02-08T10:39:06.929Z,2.10
2019-02-08T10:40:42.433Z,1.80
2019-02-08T10:42:23.947Z,2.25
2019-02-08T10:44:08.652Z,2.90
2019-02-08T10:45:52.811Z,2.40
2019-02-08T10:47:34.131Z,2.00
2019-02-08T10:49:21.995Z,1.70
2019-02-08T10:50:56.389Z,1.60
2019-02-08T10:52:42.064Z,1.62
2019-02-08T10:54:28.752Z,1.70
2019-02-08T10:56:30.503Z,1.75
2019-02-08T10:58:21.590Z,1.80
2019-02-08T11:00:16.997Z,1.90
2019-02-08T11:02:17.839Z,2.00
2019-02-08T11:04:01.227Z,1.90
2019-02-08T11:05:53.534Z,2.20
2019-02-08T11:07:34.350Z,1.80
2019-02-08T11:09:25.147Z,1.80
2019-02-08T11:11:08.122Z,1.65
2019-02-08T11:12:55.331Z,1.92
2019-02-08T11:14:35.226Z,1.92
2019-02-08T11:16:29.522Z,5.37
2019-02-08T11:18:17.385Z,2.00
2019-02-08T11:19:22.334Z,1.60
2019-02-08T11:20:27.631Z,2.02
2019-02-08T11:21:33.071Z,2.15
2019-02-08T11:22:38.178Z,2.45
2019-02-08T11:23:43.202Z,1.85
2019-02-08T11:24:48.241Z,2.05
2019-02-08T11:25:53.721Z,1.42
2019-02-08T11:27:00.460Z,1.60
2019-02-08T11:28:05.604Z,2.00
2019-02-08T11:29:10.765Z,1.72
2019-02-08T11:30:17.238Z,1.67
2019-02-08T11:31:22.364Z,1.75
2019-02-08T11:32:42.571Z,1.55
2019-02-08T11:33:34.310Z,2.05
2019-02-08T11:34:39.415Z,2.52
2019-02-08T11:35:44.509Z,2.55
2019-02-08T11:36:49.626Z,2.08
2019-02-08T11:37:54.718Z,2.17
2019-02-08T11:38:59.671Z,1.70
2019-02-08T11:40:08.603Z,1.92
2019-02-08T11:41:14.133Z,1.80
2019-02-08T11:42:19.197Z,1.85
2019-02-08T11:43:24.311Z,2.02
2019-02-08T11:44:29.770Z,2.35
2019-02-08T11:45:35.260Z,1.65
2019-02-08T11:46:40.399Z,1.70
2019-02-08T11:47:45.558Z,1.57
2019-02-08T11:48:51.656Z,1.22
2019-02-08T11:49:56.896Z,1.70
2019-02-08T11:51:01.888Z,2.00
2019-02-08T11:52:07.011Z,1.90
2019-02-08T11:53:12.106Z,1.65
2019-02-08T11:54:18.107Z,1.85
2019-02-08T11:55:23.361Z,2.00
2019-02-08T11:56:30.051Z,2.50
2019-02-08T11:57:35.202Z,1.52
2019-02-08T11:58:40.443Z,1.77
2019-02-08T11:59:45.612Z,1.60
2019-02-08T12:00:53.311Z,1.40
2019-02-08T12:01:59.280Z,1.80
2019-02-08T12:03:04.711Z,5.25
2019-02-08T12:04:09.918Z,2.27
2019-02-08T12:05:15.354Z,1.50
2019-02-08T12:06:20.463Z,1.42
2019-02-08T12:07:25.477Z,1.90
2019-02-08T12:08:30.682Z,2.02
2019-02-08T12:09:36.267Z,1.60
2019-02-08T12:10:41.821Z,1.47
2019-02-08T12:11:46.769Z,2.02
2019-02-08T12:12:51.862Z,1.72
2019-02-08T12:13:57.280Z,1.22
2019-02-08T12:15:02.566Z,2.77
2019-02-08T12:16:07.799Z,1.20
2019-02-08T12:17:12.738Z,2.45
2019-02-08T12:18:18.730Z,1.55
2019-02-08T12:19:23.949Z,1.87
2019-02-08T12:20:29.136Z,1.20
2019-02-08T12:21:34.356Z,1.60
2019-02-08T12:22:39.555Z,1.10
2019-02-08T12:23:44.625Z,1.10
2019-02-08T12:24:49.788Z,1.00
2019-02-08T12:25:54.956Z,1.52
2019-02-08T12:27:00.146Z,1.75
2019-02-08T12:28:05.563Z,1.62
2019-02-08T12:29:10.670Z,1.57
2019-02-08T12:30:20.869Z,1.27
2019-02-08T12:31:25.888Z,1.45
2019-02-08T12:32:30.864Z,1.50
2019-02-08T12:33:36.484Z,1.60
2019-02-08T12:34:41.601Z,1.35
2019-02-08T12:35:46.890Z,1.47
2019-02-08T12:36:52.286Z,1.45
2019-02-08T12:37:57.542Z,1.50
2019-02-08T12:39:02.624Z,1.50
2019-02-08T12:40:07.953Z,1.30
2019-02-08T12:41:13.405Z,1.82
2019-02-08T12:42:18.518Z,1.60
2019-02-08T12:43:23.854Z,1.32
2019-02-08T12:44:29.277Z,1.45
2019-02-08T12:45:34.585Z,1.30
2019-02-08T12:46:39.951Z,1.77
2019-02-08T12:47:44.994Z,1.60
2019-02-08T12:48:50.587Z,1.32
2019-02-08T12:49:55.962Z,1.42
2019-02-08T12:51:01.396Z,1.52
2019-02-08T12:52:06.796Z,1.22
2019-02-08T12:53:11.875Z,1.40
2019-02-08T12:54:16.969Z,1.60
2019-02-08T12:55:22.105Z,1.67
2019-02-08T12:56:27.240Z,1.62
2019-02-08T12:57:32.207Z,1.77
2019-02-08T12:58:37.419Z,1.30
2019-02-08T12:59:42.502Z,3.20
2019-02-08T13:00:47.980Z,1.20
2019-02-08T13:01:53.030Z,4.10
2019-02-08T13:02:58.466Z,1.62
2019-02-08T13:04:04.960Z,1.50
2019-02-08T13:05:11.203Z,1.50
2019-02-08T13:06:16.430Z,1.10
2019-02-08T13:07:21.885Z,1.32
2019-02-08T13:08:27.396Z,1.20
2019-02-08T13:09:32.655Z,1.47
2019-02-08T13:10:37.797Z,1.40
2019-02-08T13:11:43.067Z,1.50
2019-02-08T13:12:48.869Z,1.45
2019-02-08T13:13:53.998Z,2.10
2019-02-08T13:14:59.371Z,1.55
2019-02-08T13:16:04.774Z,1.60
2019-02-08T13:17:09.974Z,2.35
2019-02-08T13:18:15.095Z,1.37
2019-02-08T13:19:20.548Z,2.65
2019-02-08T13:20:25.953Z,1.42
2019-02-08T13:21:31.209Z,1.30
2019-02-08T13:22:36.293Z,1.10
2019-02-08T13:23:43.916Z,2.12
2019-02-08T13:24:49.905Z,1.20
2019-02-08T13:25:58.340Z,1.37
2019-02-08T13:27:03.436Z,1.37
2019-02-08T13:28:08.566Z,2.35
2019-02-08T13:29:14.054Z,1.40
2019-02-08T13:30:24.957Z,1.25
2019-02-08T13:31:30.238Z,1.35
2019-02-08T13:32:35.361Z,1.55
2019-02-08T13:33:41.102Z,1.22
2019-02-08T13:34:46.196Z,1.60
2019-02-08T13:35:51.578Z,2.15
2019-02-08T13:36:56.661Z,1.65
2019-02-08T13:38:01.813Z,1.70
2019-02-08T13:39:09.383Z,1.20
2019-02-08T13:40:15.550Z,1.80
2019-02-08T13:41:20.605Z,2.70
2019-02-08T13:42:26.584Z,1.62
2019-02-08T13:43:31.761Z,1.50
2019-02-08T13:44:37.255Z,1.40
2019-02-08T13:45:42.421Z,1.50
2019-02-08T13:46:48.685Z,1.70
2019-02-08T13:47:53.944Z,1.62
2019-02-08T13:48:59.151Z,1.90
2019-02-08T13:50:05.226Z,1.60
2019-02-08T13:51:10.455Z,1.55
2019-02-08T13:52:16.202Z,1.60
2019-02-08T13:53:21.277Z,1.10
2019-02-08T13:54:26.545Z,1.42
2019-02-08T13:55:31.783Z,2.10
2019-02-08T13:56:36.921Z,1.57
2019-02-08T13:57:42.091Z,1.77
2019-02-08T13:58:47.340Z,1.90
2019-02-08T13:59:52.607Z,2.50
2019-02-08T14:00:57.701Z,1.95
2019-02-08T14:02:02.821Z,2.17
2019-02-08T14:03:08.497Z,1.70
2019-02-08T14:04:14.810Z,1.55
2019-02-08T14:05:19.954Z,1.70
2019-02-08T14:06:26.242Z,1.60
2019-02-08T14:07:31.380Z,1.60
2019-02-08T14:08:36.580Z,1.47
2019-02-08T14:09:41.810Z,1.20
2019-02-08T14:10:47.002Z,1.25
2019-02-08T14:11:52.309Z,1.60
2019-02-08T14:12:57.493Z,1.57
2019-02-08T14:14:02.863Z,1.30
2019-02-08T14:15:08.601Z,2.02
2019-02-08T14:16:13.683Z,1.47
2019-02-08T14:17:18.846Z,1.87
2019-02-08T14:18:24.005Z,1.35
2019-02-08T14:19:30.785Z,1.32
2019-02-08T14:20:36.048Z,1.50
2019-02-08T14:21:41.123Z,1.57
2019-02-08T14:22:46.476Z,1.95
2019-02-08T14:23:51.615Z,3.00
2019-02-08T14:24:56.740Z,2.25
2019-02-08T14:26:02.332Z,2.65
2019-02-08T14:27:08.798Z,2.02
2019-02-08T14:28:14.132Z,2.15
2019-02-08T14:29:19.436Z,2.55
2019-02-08T14:30:30.308Z,2.90
2019-02-08T14:31:35.576Z,2.65
2019-02-08T14:32:41.223Z,2.90
2019-02-08T14:33:46.386Z,2.60
2019-02-08T14:34:51.653Z,2.60
2019-02-08T14:35:56.792Z,2.55
2019-02-08T14:37:02.148Z,2.58
2019-02-08T14:38:11.094Z,3.60
2019-02-08T14:39:16.793Z,2.87
2019-02-08T14:40:22.979Z,3.15
2019-02-08T14:41:28.124Z,3.20
2019-02-08T14:42:33.236Z,3.17
2019-02-08T14:43:38.377Z,3.00
2019-02-08T14:44:43.476Z,3.00
2019-02-08T14:45:48.873Z,3.45
2019-02-08T14:46:54.150Z,3.40
2019-02-08T14:47:59.516Z,3.40
2019-02-08T14:49:05.075Z,2.55
2019-02-08T14:50:12.706Z,2.92
2019-02-08T14:51:17.890Z,3.80
2019-02-08T14:52:23.389Z,2.87
2019-02-08T14:53:28.991Z,3.92
2019-02-08T14:54:34.196Z,3.80
2019-02-08T14:55:40.173Z,4.17
2019-02-08T14:56:47.920Z,3.92
2019-02-08T14:57:53.644Z,3.22
2019-02-08T14:58:59.816Z,3.77
2019-02-08T15:00:08.207Z,4.25
2019-02-08T15:01:13.278Z,3.72
2019-02-08T15:02:18.335Z,3.27
2019-02-08T15:03:23.639Z,3.17
2019-02-08T15:04:28.940Z,3.72
2019-02-08T15:05:34.229Z,2.90
2019-02-08T15:06:42.393Z,3.90
2019-02-08T15:07:48.201Z,3.20
2019-02-08T15:08:56.543Z,3.52
2019-02-08T15:10:01.738Z,3.20
2019-02-08T15:11:06.808Z,3.35
2019-02-08T15:12:11.865Z,3.65
2019-02-08T15:13:17.663Z,3.72
2019-02-08T15:14:24.193Z,3.45
2019-02-08T15:15:29.555Z,3.67
2019-02-08T15:16:34.799Z,3.77
2019-02-08T15:17:40.027Z,3.20
2019-02-08T15:18:45.222Z,3.60
2019-02-08T15:19:50.506Z,3.70
2019-02-08T15:20:57.065Z,3.33
2019-02-08T15:22:02.303Z,2.50
2019-02-08T15:23:07.520Z,3.33
2019-02-08T15:24:12.986Z,3.10
2019-02-08T15:25:19.479Z,3.67
2019-02-08T15:26:25.235Z,2.92
2019-02-08T15:27:30.467Z,2.50
2019-02-08T15:28:35.613Z,3.30
2019-02-08T15:29:40.730Z,3.25
2019-02-08T15:30:46.706Z,3.15
2019-02-08T15:31:52.231Z,3.37
2019-02-08T15:32:57.774Z,3.15
2019-02-08T15:34:02.816Z,3.45
2019-02-08T15:35:09.181Z,3.60
2019-02-08T15:36:14.457Z,3.15
2019-02-08T15:37:19.998Z,3.10
2019-02-08T15:38:25.171Z,3.25
2019-02-08T15:39:30.385Z,2.60
2019-02-08T15:40:39.690Z,3.12
2019-02-08T15:41:44.653Z,3.20
2019-02-08T15:42:49.827Z,2.40
2019-02-08T15:43:54.877Z,2.42
2019-02-08T15:44:59.927Z,2.22
2019-02-08T15:46:06.615Z,2.60
2019-02-08T15:47:11.817Z,3.33
2019-02-08T15:48:16.876Z,2.65
2019-02-08T15:49:22.353Z,2.10
2019-02-08T15:50:27.523Z,2.60
2019-02-08T15:51:32.711Z,2.20
2019-02-08T15:52:38.340Z,2.50
2019-02-08T15:53:43.495Z,2.70